Time;durP1;ratioP1;P1;durP2;ratioP2;P2;SDS_P1;SDS_P2;PMS_P1;PMS_P2;Temp;Humidity;BMP_temperature;BMP_pressure;BME280_temperature;BME280_humidity;BME280_pressure;Samples;Min_cycle;Max_cycle;Signal;HPM_P1;HPM_P2
2023/09/15 00:00:25;;;;;;;0.00;0.00;;;14.30;76.00;;;;;;5008023;28;20406;-66
2023/09/15 00:02:55;;;;;;;0.00;0.00;;;14.30;76.10;;;;;;5005614;28;20084;-66
2023/09/15 00:05:20;;;;;;;0.00;0.00;;;14.20;76.00;;;;;;5008379;28;20053;-67
2023/09/15 00:07:46;;;;;;;0.00;0.00;;;14.20;76.20;;;;;;5008079;28;20570;-66
2023/09/15 00:10:12;;;;;;;0.00;0.00;;;14.20;76.20;;;;;;5007804;28;20057;-67
2023/09/15 00:12:40;;;;;;;0.00;0.00;;;14.20;76.20;;;;;;4976383;28;20763;-66
2023/09/15 00:15:10;;;;;;;0.00;0.00;;;14.20;76.10;;;;;;5008252;28;20050;-66
2023/09/15 00:17:39;;;;;;;0.13;0.13;;;14.10;76.10;;;;;;5008234;28;20053;-67
2023/09/15 00:20:12;;;;;;;0.00;0.00;;;14.10;76.20;;;;;;4989130;28;20041;-66
2023/09/15 00:22:51;;;;;;;0.00;0.00;;;14.10;76.20;;;;;;4963480;28;20046;-66
2023/09/15 00:25:18;;;;;;;0.00;0.00;;;14.10;76.50;;;;;;4993768;28;20095;-66
2023/09/15 00:27:44;;;;;;;0.10;0.10;;;14.10;76.70;;;;;;4999644;28;20038;-66
2023/09/15 00:30:10;;;;;;;0.00;0.00;;;14.10;76.60;;;;;;4991447;28;20400;-67
2023/09/15 00:32:36;;;;;;;0.10;0.10;;;14.10;76.60;;;;;;5002698;28;20041;-66
2023/09/15 00:35:01;;;;;;;0.00;0.00;;;14.10;76.70;;;;;;5008220;28;20057;-67
2023/09/15 00:37:27;;;;;;;0.00;0.00;;;14.10;76.80;;;;;;4990377;28;20065;-66
2023/09/15 00:39:52;;;;;;;0.00;0.00;;;14.00;76.70;;;;;;5007470;28;20487;-67
2023/09/15 00:42:19;;;;;;;0.00;0.00;;;14.00;76.70;;;;;;5007717;28;20033;-66
2023/09/15 00:44:45;;;;;;;0.00;0.00;;;13.90;76.70;;;;;;5007687;28;20104;-66
2023/09/15 00:47:11;;;;;;;0.00;0.00;;;14.00;76.70;;;;;;5007971;28;20061;-66
2023/09/15 00:49:37;;;;;;;0.00;0.00;;;13.90;76.80;;;;;;4990636;28;20125;-67
2023/09/15 00:52:04;;;;;;;0.00;0.00;;;13.90;76.80;;;;;;5000965;28;20426;-66
2023/09/15 00:54:30;;;;;;;0.00;0.00;;;13.90;76.80;;;;;;5007995;28;20484;-66
2023/09/15 00:56:56;;;;;;;0.00;0.00;;;13.90;76.80;;;;;;5007805;28;20038;-66
2023/09/15 00:59:22;;;;;;;0.00;0.00;;;13.90;76.70;;;;;;5007956;28;20042;-66
2023/09/15 01:01:48;;;;;;;0.00;0.00;;;13.90;76.70;;;;;;4996310;28;20418;-66
2023/09/15 01:04:14;;;;;;;0.00;0.00;;;13.80;76.80;;;;;;5008134;28;20052;-67
2023/09/15 01:06:42;;;;;;;0.00;0.00;;;13.80;76.80;;;;;;5007792;28;20108;-67
2023/09/15 01:09:08;;;;;;;0.00;0.00;;;13.80;77.10;;;;;;4990171;28;20058;-66
2023/09/15 01:11:34;;;;;;;0.00;0.00;;;13.80;77.00;;;;;;5007277;28;20050;-66
2023/09/15 01:13:59;;;;;;;0.00;0.00;;;13.80;77.10;;;;;;5007950;28;20049;-67
2023/09/15 01:16:39;;;;;;;0.00;0.00;;;13.70;77.10;;;;;;5008067;28;20133;-66
2023/09/15 01:19:43;;;;;;;0.10;0.10;;;13.70;77.10;;;;;;5008552;28;20096;-66
2023/09/15 01:22:42;;;;;;;0.00;0.00;;;13.70;77.10;;;;;;5010023;28;20050;-66
2023/09/15 01:25:52;;;;;;;0.00;0.00;;;13.60;77.20;;;;;;4992354;28;20044;-66
2023/09/15 01:28:48;;;;;;;0.00;0.00;;;13.60;77.70;;;;;;5009684;28;20073;-66
2023/09/15 01:31:17;;;;;;;0.00;0.00;;;13.60;77.80;;;;;;4990681;28;20049;-66
2023/09/15 01:33:43;;;;;;;0.00;0.00;;;13.60;77.80;;;;;;4975327;28;20042;-66
2023/09/15 01:36:09;;;;;;;0.00;0.00;;;13.60;77.70;;;;;;4997711;28;20053;-67
2023/09/15 01:38:34;;;;;;;0.00;0.00;;;13.60;77.60;;;;;;5011040;28;20388;-67
2023/09/15 01:41:00;;;;;;;0.00;0.00;;;13.60;77.50;;;;;;5011014;28;20038;-66
2023/09/15 01:43:25;;;;;;;0.10;0.10;;;13.60;77.60;;;;;;5011549;28;20069;-66
2023/09/15 01:45:51;;;;;;;0.10;0.10;;;13.60;77.70;;;;;;5010427;28;20038;-66
2023/09/15 01:48:17;;;;;;;0.00;0.00;;;13.60;77.60;;;;;;5012484;28;20050;-66
2023/09/15 01:50:42;;;;;;;0.00;0.00;;;13.60;77.60;;;;;;5012095;28;20042;-66
2023/09/15 01:53:08;;;;;;;0.00;0.00;;;13.60;77.70;;;;;;5012436;28;20125;-66
2023/09/15 01:55:34;;;;;;;0.00;0.00;;;13.60;77.60;;;;;;5011683;28;20045;-66
2023/09/15 01:58:00;;;;;;;0.00;0.00;;;13.60;77.60;;;;;;5012335;28;20053;-67
2023/09/15 02:00:34;;;;;;;0.00;0.00;;;13.50;77.70;;;;;;5010238;28;20046;-66
2023/09/15 02:03:00;;;;;;;0.08;0.08;;;13.50;77.80;;;;;;5010042;28;20532;-67
2023/09/15 02:05:25;;;;;;;0.00;0.00;;;13.50;77.90;;;;;;5010952;28;20129;-66
2023/09/15 02:07:51;;;;;;;0.00;0.00;;;13.50;77.90;;;;;;5002682;28;20046;-66
2023/09/15 02:10:16;;;;;;;0.00;0.00;;;13.40;77.90;;;;;;5012081;28;20406;-66
2023/09/15 02:12:42;;;;;;;0.00;0.00;;;13.40;77.90;;;;;;5011587;28;20057;-67
2023/09/15 02:15:08;;;;;;;0.00;0.00;;;13.40;78.00;;;;;;5010634;28;20516;-66
2023/09/15 02:17:34;;;;;;;0.00;0.00;;;13.40;78.10;;;;;;5011629;28;20053;-65
2023/09/15 02:19:59;;;;;;;0.00;0.00;;;13.40;78.10;;;;;;5011856;28;20050;-66
2023/09/15 02:22:26;;;;;;;0.03;0.03;;;13.40;78.10;;;;;;5010729;28;20050;-67
2023/09/15 02:24:51;;;;;;;0.00;0.00;;;13.40;78.00;;;;;;5011882;28;20081;-66
2023/09/15 02:27:17;;;;;;;0.00;0.00;;;13.30;78.10;;;;;;5010757;28;20713;-66
2023/09/15 02:29:43;;;;;;;0.00;0.00;;;13.40;78.10;;;;;;4992234;28;20078;-66
2023/09/15 02:32:08;;;;;;;0.00;0.00;;;13.30;78.10;;;;;;5011115;28;20038;-66
2023/09/15 02:34:34;;;;;;;0.00;0.00;;;13.30;78.20;;;;;;5010362;28;20565;-66
2023/09/15 02:36:59;;;;;;;0.00;0.00;;;13.30;78.20;;;;;;5011218;28;20569;-66
2023/09/15 02:39:25;;;;;;;0.00;0.00;;;13.30;78.10;;;;;;5010753;28;20049;-66
2023/09/15 02:41:50;;;;;;;0.00;0.00;;;13.20;78.10;;;;;;5010994;28;20049;-66
2023/09/15 02:44:16;;;;;;;0.00;0.00;;;13.30;78.20;;;;;;5011437;28;20049;-66
2023/09/15 02:46:41;;;;;;;0.00;0.00;;;13.20;78.30;;;;;;5011067;28;20084;-66
2023/09/15 02:49:07;;;;;;;0.00;0.00;;;13.10;78.20;;;;;;5010951;28;20489;-66
2023/09/15 02:51:33;;;;;;;0.00;0.00;;;13.10;78.20;;;;;;5011405;28;20069;-66
2023/09/15 02:54:00;;;;;;;0.00;0.00;;;13.10;78.20;;;;;;5011008;28;20046;-66
2023/09/15 02:56:25;;;;;;;0.10;0.10;;;13.10;78.30;;;;;;4992547;28;20406;-67
2023/09/15 02:58:51;;;;;;;0.00;0.00;;;13.10;78.60;;;;;;5011117;28;20046;-66
2023/09/15 03:01:17;;;;;;;0.00;0.00;;;13.10;78.60;;;;;;5010668;28;20576;-66
2023/09/15 03:03:42;;;;;;;0.38;0.38;;;13.00;78.80;;;;;;5010574;28;20141;-66
2023/09/15 03:06:09;;;;;;;0.00;0.00;;;13.00;78.70;;;;;;5010945;28;20053;-67
2023/09/15 03:08:36;;;;;;;0.00;0.00;;;13.00;78.70;;;;;;5010398;28;20040;-66
2023/09/15 03:11:01;;;;;;;0.00;0.00;;;13.00;78.50;;;;;;5010148;28;20797;-66
2023/09/15 03:13:27;;;;;;;0.00;0.00;;;12.90;78.70;;;;;;4993216;28;20087;-66
2023/09/15 03:15:53;;;;;;;0.00;0.00;;;12.90;78.70;;;;;;5009998;28;20077;-66
2023/09/15 03:18:18;;;;;;;0.00;0.00;;;12.90;78.60;;;;;;5010626;28;20087;-66
2023/09/15 03:20:44;;;;;;;0.00;0.00;;;13.00;78.70;;;;;;5010631;28;20115;-66
2023/09/15 03:23:10;;;;;;;0.00;0.00;;;12.90;78.60;;;;;;5009584;28;20628;-66
2023/09/15 03:25:35;;;;;;;0.00;0.00;;;12.90;78.60;;;;;;5010712;28;20487;-66
2023/09/15 03:28:01;;;;;;;0.00;0.00;;;12.90;78.70;;;;;;5010569;28;20092;-66
2023/09/15 03:30:27;;;;;;;0.10;0.10;;;12.90;78.70;;;;;;5009505;28;20121;-66
2023/09/15 03:32:53;;;;;;;0.00;0.00;;;12.90;78.70;;;;;;5009921;28;20125;-66
2023/09/15 03:35:19;;;;;;;0.00;0.00;;;12.90;78.70;;;;;;5010490;28;20054;-66
2023/09/15 03:37:45;;;;;;;0.10;0.10;;;12.90;78.70;;;;;;5010164;28;20046;-66
2023/09/15 03:40:14;;;;;;;0.00;0.00;;;13.00;78.70;;;;;;5009776;28;20038;-66
2023/09/15 03:42:39;;;;;;;0.00;0.00;;;12.90;78.70;;;;;;5009382;28;20042;-66
2023/09/15 03:45:06;;;;;;;0.00;0.00;;;12.90;78.60;;;;;;5010165;28;20046;-66
2023/09/15 03:47:32;;;;;;;0.00;0.00;;;13.00;78.80;;;;;;5009688;28;20088;-66
2023/09/15 03:49:58;;;;;;;0.00;0.00;;;12.90;78.70;;;;;;5010278;28;20463;-66
2023/09/15 03:52:24;;;;;;;0.00;0.00;;;12.90;78.80;;;;;;5009659;28;20034;-65
2023/09/15 03:54:49;;;;;;;0.00;0.00;;;12.90;79.00;;;;;;5009849;28;20099;-66
2023/09/15 03:57:15;;;;;;;0.00;0.00;;;12.80;78.90;;;;;;5009332;28;20129;-66
2023/09/15 03:59:40;;;;;;;0.00;0.00;;;12.80;78.90;;;;;;5009628;28;20045;-66
2023/09/15 04:02:07;;;;;;;0.00;0.00;;;12.70;79.20;;;;;;4991802;28;20041;-66
2023/09/15 04:04:32;;;;;;;0.05;0.05;;;12.80;79.20;;;;;;5009728;28;20049;-66
2023/09/15 04:06:58;;;;;;;0.00;0.00;;;12.70;79.10;;;;;;5009564;28;20052;-66
2023/09/15 04:09:24;;;;;;;0.00;0.00;;;12.70;79.10;;;;;;5001374;28;20058;-66
2023/09/15 04:11:51;;;;;;;0.00;0.00;;;12.70;79.10;;;;;;5009413;28;20054;-66
2023/09/15 04:14:17;;;;;;;0.00;0.00;;;12.60;79.20;;;;;;5009383;28;20073;-66
2023/09/15 04:16:42;;;;;;;0.00;0.00;;;12.70;79.10;;;;;;5009940;28;20507;-66
2023/09/15 04:19:08;;;;;;;0.00;0.00;;;12.60;79.20;;;;;;5009376;28;20048;-66
2023/09/15 04:21:35;;;;;;;0.00;0.00;;;12.60;79.20;;;;;;5008396;28;20061;-66
2023/09/15 04:24:00;;;;;;;0.00;0.00;;;12.60;79.10;;;;;;5007712;28;20100;-66
2023/09/15 04:26:26;;;;;;;0.10;0.10;;;12.60;79.20;;;;;;5009232;28;20046;-66
2023/09/15 04:28:52;;;;;;;0.95;0.95;;;12.60;79.10;;;;;;5008969;28;20781;-66
2023/09/15 04:31:17;;;;;;;0.00;0.00;;;12.60;79.10;;;;;;4990868;28;20038;-66
2023/09/15 04:33:44;;;;;;;0.00;0.00;;;12.60;79.10;;;;;;5009231;28;20046;-66
2023/09/15 04:36:09;;;;;;;0.00;0.00;;;12.60;79.10;;;;;;5008424;28;20054;-67
2023/09/15 04:38:35;;;;;;;0.00;0.00;;;12.50;79.30;;;;;;5008816;28;20042;-67
2023/09/15 04:41:00;;;;;;;0.00;0.00;;;12.60;79.30;;;;;;5008843;28;20049;-66
2023/09/15 04:43:26;;;;;;;0.00;0.00;;;12.50;79.20;;;;;;5009430;28;20517;-67
2023/09/15 04:45:51;;;;;;;0.00;0.00;;;12.50;79.10;;;;;;5008526;28;20422;-66
2023/09/15 04:48:17;;;;;;;0.00;0.00;;;12.40;79.30;;;;;;5008702;28;20625;-66
2023/09/15 04:50:43;;;;;;;0.00;0.00;;;12.50;79.50;;;;;;5009216;28;20057;-66
2023/09/15 04:53:08;;;;;;;0.00;0.00;;;12.50;79.60;;;;;;5009491;28;20045;-67
2023/09/15 04:55:34;;;;;;;0.00;0.00;;;12.40;79.50;;;;;;5012087;28;20123;-66
2023/09/15 04:57:59;;;;;;;0.00;0.00;;;12.50;79.60;;;;;;5012092;28;20046;-67
2023/09/15 05:00:26;;;;;;;0.00;0.00;;;12.50;79.50;;;;;;5008822;28;20128;-67
2023/09/15 05:02:52;;;;;;;0.77;0.77;;;12.50;79.70;;;;;;5012791;28;20053;-67
2023/09/15 05:05:18;;;;;;;0.00;0.00;;;12.40;79.70;;;;;;5011502;28;20398;-67
2023/09/15 05:07:44;;;;;;;0.00;0.00;;;12.50;79.80;;;;;;5012490;28;20049;-66
2023/09/15 05:10:10;;;;;;;0.00;0.00;;;12.50;79.90;;;;;;5012356;28;20104;-66
2023/09/15 05:12:35;;;;;;;0.00;0.00;;;12.50;79.90;;;;;;5012446;28;20042;-67
2023/09/15 05:15:03;;;;;;;0.00;0.00;;;12.50;79.80;;;;;;5012887;28;20453;-67
2023/09/15 05:17:28;;;;;;;0.00;0.00;;;12.50;79.80;;;;;;4994581;28;20092;-67
2023/09/15 05:19:56;;;;;;;0.00;0.00;;;12.50;79.70;;;;;;5008941;28;20038;-67
2023/09/15 05:22:22;;;;;;;0.00;0.00;;;12.50;79.70;;;;;;5003279;28;20053;-67
2023/09/15 05:24:48;;;;;;;0.00;0.00;;;12.40;79.50;;;;;;5013564;28;20731;-66
2023/09/15 05:27:13;;;;;;;0.00;0.00;;;12.40;79.50;;;;;;5012759;28;20053;-67
2023/09/15 05:29:42;;;;;;;0.10;0.10;;;12.40;79.40;;;;;;4994174;28;20042;-67
2023/09/15 05:32:07;;;;;;;0.00;0.00;;;12.40;79.50;;;;;;4998315;28;20046;-67
2023/09/15 05:34:33;;;;;;;0.00;0.00;;;12.40;79.70;;;;;;5011015;28;20729;-69
2023/09/15 05:36:58;;;;;;;0.00;0.00;;;12.40;79.70;;;;;;5013271;28;20434;-68
2023/09/15 05:39:24;;;;;;;0.08;0.08;;;12.40;79.60;;;;;;5012062;28;20037;-68
2023/09/15 05:41:49;;;;;;;0.00;0.00;;;12.40;79.70;;;;;;5011322;28;20537;-68
2023/09/15 05:44:18;;;;;;;0.00;0.00;;;12.50;79.90;;;;;;5011850;28;20049;-68
2023/09/15 05:46:43;;;;;;;0.00;0.00;;;12.50;79.90;;;;;;5000383;28;20045;-68
2023/09/15 05:49:09;;;;;;;0.03;0.03;;;12.50;80.00;;;;;;5002154;28;20038;-68
2023/09/15 05:51:34;;;;;;;0.00;0.00;;;12.50;80.00;;;;;;4999068;28;20071;-69
2023/09/15 05:54:00;;;;;;;0.00;0.00;;;12.50;80.20;;;;;;5006292;28;20050;-68
2023/09/15 05:56:26;;;;;;;0.00;0.00;;;12.50;80.40;;;;;;5001034;28;20038;-68
2023/09/15 05:58:51;;;;;;;0.15;0.15;;;12.60;80.30;;;;;;4994317;28;20116;-69
2023/09/15 06:01:20;;;;;;;0.00;0.00;;;12.60;80.30;;;;;;4998745;28;20050;-68
2023/09/15 06:03:47;;;;;;;0.00;0.00;;;12.60;80.10;;;;;;5002820;28;20050;-69
2023/09/15 06:06:13;;;;;;;0.00;0.00;;;12.60;80.00;;;;;;5000490;28;20069;-68
2023/09/15 06:08:39;;;;;;;0.00;0.00;;;12.60;80.00;;;;;;4980883;28;20153;-68
2023/09/15 06:11:06;;;;;;;0.00;0.00;;;12.70;80.00;;;;;;4998292;28;20466;-69
2023/09/15 06:13:33;;;;;;;0.00;0.00;;;12.70;80.00;;;;;;5002297;28;20084;-68
2023/09/15 06:16:04;;;;;;;0.00;0.00;;;12.80;79.90;;;;;;4998564;28;20065;-71
2023/09/15 06:18:30;;;;;;;0.00;0.00;;;12.80;79.90;;;;;;5004076;28;20511;-69
2023/09/15 06:20:56;;;;;;;0.00;0.00;;;12.80;79.70;;;;;;5000538;28;20092;-66
2023/09/15 06:23:22;;;;;;;0.00;0.00;;;13.80;87.10;;;;;;5001046;28;20071;-66
2023/09/15 06:25:48;;;;;;;0.00;0.00;;;13.80;85.10;;;;;;5000396;28;20388;-63
2023/09/15 06:28:14;;;;;;;0.00;0.00;;;13.70;83.70;;;;;;4982797;28;20453;-63
2023/09/15 06:30:40;;;;;;;0.00;0.00;;;13.60;82.70;;;;;;5001014;28;20121;-63
2023/09/15 06:33:06;;;;;;;0.00;0.00;;;13.60;81.90;;;;;;5000679;28;20040;-65
2023/09/15 06:35:31;;;;;;;0.10;0.10;;;13.60;81.30;;;;;;5000942;28;20060;-67
2023/09/15 06:37:57;;;;;;;0.00;0.00;;;13.60;81.00;;;;;;5003102;28;20072;-65
2023/09/15 06:40:22;;;;;;;0.03;0.03;;;13.60;80.80;;;;;;5001562;28;20702;-65
2023/09/15 06:42:48;;;;;;;0.47;0.47;;;13.60;80.50;;;;;;4999990;28;20491;-63
2023/09/15 06:45:14;;;;;;;0.00;0.00;;;13.60;80.50;;;;;;5002752;28;20049;-66
2023/09/15 06:47:39;;;;;;;0.00;0.00;;;13.80;83.30;;;;;;4999522;28;20664;-65
2023/09/15 06:50:06;;;;;;;0.00;0.00;;;13.90;81.80;;;;;;4998371;28;20070;-65
2023/09/15 06:52:31;;;;;;;0.00;0.00;;;13.90;81.00;;;;;;4982952;28;20120;-65
2023/09/15 06:54:57;;;;;;;0.00;0.00;;;13.80;80.60;;;;;;5000435;28;20124;-65
2023/09/15 06:57:22;;;;;;;0.00;0.00;;;13.80;80.40;;;;;;4999230;28;20046;-65
2023/09/15 06:59:48;;;;;;;0.00;0.00;;;13.80;80.20;;;;;;4999373;28;20045;-64
2023/09/15 07:02:13;;;;;;;0.00;0.00;;;13.80;80.20;;;;;;4999070;28;20046;-65
2023/09/15 07:04:39;;;;;;;0.00;0.00;;;13.80;80.20;;;;;;5000618;28;20038;-65
2023/09/15 07:07:04;;;;;;;0.00;0.00;;;13.90;80.30;;;;;;4996182;28;20046;-65
2023/09/15 07:09:30;;;;;;;0.00;0.00;;;14.00;80.60;;;;;;4981884;28;20046;-64
2023/09/15 07:11:56;;;;;;;0.00;0.00;;;14.00;80.40;;;;;;4999275;28;20120;-64
2023/09/15 07:14:21;;;;;;;0.00;0.00;;;14.10;80.50;;;;;;4999509;28;20042;-65
2023/09/15 07:16:48;;;;;;;0.00;0.00;;;14.10;80.50;;;;;;4998652;28;20041;-65
2023/09/15 07:19:14;;;;;;;0.00;0.00;;;14.10;80.70;;;;;;4999545;28;20057;-65
2023/09/15 07:21:41;;;;;;;0.30;0.30;;;14.10;80.50;;;;;;4998295;28;20065;-65
2023/09/15 07:24:10;;;;;;;0.00;0.00;;;14.10;80.50;;;;;;4998556;28;20037;-65
2023/09/15 07:26:36;;;;;;;0.00;0.00;;;14.20;80.40;;;;;;4998092;28;20501;-65
2023/09/15 07:29:03;;;;;;;0.00;0.00;;;14.30;80.40;;;;;;4995705;28;20116;-65
2023/09/15 07:31:33;;;;;;;0.00;0.00;;;14.30;80.30;;;;;;4995623;28;20121;-64
2023/09/15 07:33:58;;;;;;;0.00;0.00;;;14.30;80.40;;;;;;4998227;28;20503;-65
2023/09/15 07:36:24;;;;;;;0.00;0.00;;;14.30;80.40;;;;;;4998761;28;20038;-65
2023/09/15 07:38:50;;;;;;;0.00;0.00;;;14.40;80.40;;;;;;4999317;28;20460;-65
2023/09/15 07:41:15;;;;;;;0.00;0.00;;;14.50;80.50;;;;;;4998313;28;20767;-65
2023/09/15 07:43:41;;;;;;;0.03;0.03;;;14.60;80.40;;;;;;4997513;28;20046;-65
2023/09/15 07:46:06;;;;;;;0.00;0.00;;;14.60;80.50;;;;;;4997087;28;20042;-65
2023/09/15 07:48:32;;;;;;;0.00;0.00;;;14.60;80.40;;;;;;4998700;28;20660;-66
2023/09/15 07:50:58;;;;;;;0.00;0.00;;;14.80;80.50;;;;;;4982334;28;20046;-65
2023/09/15 07:53:23;;;;;;;0.00;0.00;;;14.90;80.20;;;;;;4963681;28;20066;-65
2023/09/15 07:55:49;;;;;;;0.00;0.00;;;14.90;80.50;;;;;;4978519;28;20236;-65
2023/09/15 07:58:15;;;;;;;0.00;0.00;;;15.00;80.90;;;;;;4998694;28;20042;-66
2023/09/15 08:00:41;;;;;;;0.00;0.00;;;15.10;80.80;;;;;;4999309;28;20498;-65
2023/09/15 08:03:06;;;;;;;0.00;0.00;;;15.10;80.80;;;;;;4998845;28;20637;-65
2023/09/15 08:05:32;;;;;;;0.38;0.38;;;15.10;80.60;;;;;;4981242;28;20057;-65
2023/09/15 08:07:57;;;;;;;0.00;0.00;;;15.20;80.60;;;;;;4994611;28;20045;-66
2023/09/15 08:10:23;;;;;;;0.00;0.00;;;15.20;80.60;;;;;;4996410;28;20073;-65
2023/09/15 08:12:55;;;;;;;0.00;0.00;;;15.30;81.00;;;;;;4997901;28;20046;-65
2023/09/15 08:15:21;;;;;;;;;;;15.30;80.60;;;;;;4997057;28;20039;-66
2023/09/15 08:17:48;;;;;;;0.10;0.10;;;15.50;80.80;;;;;;5000565;28;20336;-67
2023/09/15 08:20:14;;;;;;;1.75;1.10;;;15.50;80.90;;;;;;4997438;28;20050;-65
2023/09/15 08:22:40;;;;;;;0.00;0.00;;;15.60;81.00;;;;;;4993036;28;20065;-65
2023/09/15 08:25:10;;;;;;;0.00;0.00;;;15.60;80.70;;;;;;4998080;28;20046;-66
2023/09/15 08:27:39;;;;;;;0.00;0.00;;;15.70;80.60;;;;;;4964145;28;20056;-66
2023/09/15 08:30:08;;;;;;;0.00;0.00;;;15.80;80.50;;;;;;4997406;28;20427;-66
2023/09/15 08:32:37;;;;;;;0.00;0.00;;;15.80;80.40;;;;;;4995975;28;20050;-66
2023/09/15 08:35:04;;;;;;;0.43;0.25;;;15.90;80.60;;;;;;4990499;28;20050;-65
2023/09/15 08:37:32;;;;;;;0.00;0.00;;;16.00;80.30;;;;;;4995903;28;20061;-66
2023/09/15 08:40:01;;;;;;;0.00;0.00;;;16.00;80.00;;;;;;4991738;28;20057;-66
2023/09/15 08:42:28;;;;;;;0.00;0.00;;;16.10;79.90;;;;;;4964826;28;20089;-66
2023/09/15 08:44:56;;;;;;;0.03;0.03;;;16.10;79.90;;;;;;4957835;28;20157;-65
2023/09/15 08:47:24;;;;;;;0.00;0.00;;;16.20;79.80;;;;;;4995316;28;20050;-66
2023/09/15 08:49:51;;;;;;;0.00;0.00;;;16.30;79.60;;;;;;5007079;28;20160;-66
2023/09/15 08:52:17;;;;;;;0.00;0.00;;;16.30;79.50;;;;;;5005354;28;20121;-66
2023/09/15 08:54:45;;;;;;;0.00;0.00;;;16.50;79.50;;;;;;5000004;28;20052;-66
2023/09/15 08:57:11;;;;;;;0.00;0.00;;;16.50;79.30;;;;;;4986061;28;20059;-66
2023/09/15 08:59:37;;;;;;;0.00;0.00;;;16.60;79.50;;;;;;5005516;28;20042;-66
2023/09/15 09:02:03;;;;;;;0.00;0.00;;;16.70;79.20;;;;;;4985857;28;20136;-66
2023/09/15 09:04:29;;;;;;;0.00;0.00;;;16.80;79.10;;;;;;5005922;28;20104;-65
2023/09/15 09:06:55;;;;;;;0.00;0.00;;;16.90;79.00;;;;;;5000326;28;20505;-66
2023/09/15 09:09:23;;;;;;;0.10;0.10;;;16.90;78.90;;;;;;5003748;28;20049;-66
2023/09/15 09:11:49;;;;;;;0.00;0.00;;;17.00;78.50;;;;;;4982490;28;20057;-67
2023/09/15 09:14:15;;;;;;;0.10;0.10;;;17.10;77.90;;;;;;5008180;28;20519;-66
2023/09/15 09:16:42;;;;;;;0.00;0.00;;;17.10;77.90;;;;;;4994224;28;20076;-66
2023/09/15 09:19:09;;;;;;;0.32;0.32;;;17.20;77.50;;;;;;5001460;28;20084;-66
2023/09/15 09:21:34;;;;;;;0.00;0.00;;;17.30;77.30;;;;;;4998601;28;20050;-65
2023/09/15 09:24:00;;;;;;;0.00;0.00;;;17.30;77.10;;;;;;5006186;28;20056;-67
2023/09/15 09:26:27;;;;;;;0.10;0.10;;;17.50;77.10;;;;;;5006508;28;20100;-66
2023/09/15 09:28:59;;;;;;;0.03;0.03;;;17.50;76.70;;;;;;4999429;28;21093;-66
2023/09/15 09:31:26;;;;;;;0.00;0.00;;;17.60;76.60;;;;;;4995895;28;20050;-66
2023/09/15 09:33:53;;;;;;;0.00;0.00;;;17.60;76.30;;;;;;5001879;28;20045;-66
2023/09/15 09:36:19;;;;;;;0.00;0.00;;;17.70;74.30;;;;;;4995344;28;20438;-66
2023/09/15 09:38:47;;;;;;;0.00;0.00;;;17.80;74.80;;;;;;5006662;28;20038;-66
2023/09/15 09:41:13;;;;;;;0.00;0.00;;;17.80;73.00;;;;;;4997522;28;20053;-66
2023/09/15 09:43:40;;;;;;;0.00;0.00;;;17.90;73.90;;;;;;5010527;28;20503;-67
2023/09/15 09:46:06;;;;;;;0.00;0.00;;;17.90;72.80;;;;;;4999658;28;20041;-66
2023/09/15 09:48:36;;;;;;;1.00;0.93;;;18.00;73.20;;;;;;5010423;28;20135;-66
2023/09/15 09:51:03;;;;;;;0.45;0.20;;;18.00;71.60;;;;;;4999066;28;20061;-66
2023/09/15 09:53:32;;;;;;;0.00;0.00;;;18.10;72.00;;;;;;5010196;28;20045;-66
2023/09/15 09:55:58;;;;;;;0.00;0.00;;;18.10;71.50;;;;;;5001712;28;20098;-66
2023/09/15 09:58:24;;;;;;;0.00;0.00;;;18.20;71.70;;;;;;5007830;28;20052;-67
2023/09/15 10:00:50;;;;;;;0.00;0.00;;;18.30;71.80;;;;;;5002830;28;20042;-66
2023/09/15 10:03:17;;;;;;;0.00;0.00;;;18.40;72.20;;;;;;5005822;28;20142;-66
2023/09/15 10:05:43;;;;;;;0.00;0.00;;;18.50;72.10;;;;;;5003226;28;20038;-66
2023/09/15 10:08:09;;;;;;;0.00;0.00;;;18.50;71.80;;;;;;5002760;28;20058;-67
2023/09/15 10:10:41;;;;;;;0.00;0.00;;;18.50;71.00;;;;;;5000368;28;20418;-66
2023/09/15 10:13:08;;;;;;;0.00;0.00;;;18.60;70.90;;;;;;5004289;28;20469;-66
2023/09/15 10:15:35;;;;;;;0.00;0.00;;;18.60;70.40;;;;;;5004079;28;20414;-66
2023/09/15 10:18:02;;;;;;;0.00;0.00;;;18.80;71.20;;;;;;5003216;28;20094;-66
2023/09/15 10:20:29;;;;;;;0.00;0.00;;;18.80;69.70;;;;;;5002034;28;20129;-66
2023/09/15 10:22:55;;;;;;;0.00;0.00;;;18.80;69.40;;;;;;5005501;28;20046;-67
2023/09/15 10:25:21;;;;;;;0.00;0.00;;;18.90;71.20;;;;;;5004005;28;20076;-67
2023/09/15 10:27:46;;;;;;;0.00;0.00;;;18.90;70.00;;;;;;5003109;28;20466;-67
2023/09/15 10:30:13;;;;;;;0.00;0.00;;;19.00;68.40;;;;;;5003371;28;20561;-67
2023/09/15 10:32:39;;;;;;;0.00;0.00;;;19.00;68.20;;;;;;5003733;28;20133;-67
2023/09/15 10:35:06;;;;;;;0.10;0.10;;;19.10;68.60;;;;;;5007131;28;20157;-67
2023/09/15 10:37:33;;;;;;;0.00;0.00;;;19.10;68.60;;;;;;5000657;28;20686;-67
2023/09/15 10:39:59;;;;;;;0.03;0.03;;;19.20;69.50;;;;;;5005625;28;20042;-66
2023/09/15 10:42:26;;;;;;;0.00;0.00;;;19.30;69.90;;;;;;5001995;28;20537;-67
2023/09/15 10:44:52;;;;;;;0.00;0.00;;;19.30;69.60;;;;;;5004247;28;20059;-66
2023/09/15 10:47:18;;;;;;;1.55;0.43;;;19.30;67.50;;;;;;5001591;28;20058;-67
2023/09/15 10:49:52;;;;;;;0.00;0.00;;;19.30;67.60;;;;;;5005554;28;20034;-66
2023/09/15 10:52:18;;;;;;;0.00;0.00;;;19.50;67.90;;;;;;5001460;28;20052;-66
2023/09/15 10:54:44;;;;;;;0.00;0.00;;;19.50;67.50;;;;;;5008363;28;20065;-67
2023/09/15 10:57:10;;;;;;;0.00;0.00;;;19.50;65.30;;;;;;4997562;28;20034;-66
2023/09/15 10:59:36;;;;;;;0.00;0.00;;;19.50;66.90;;;;;;5007563;28;20058;-68
2023/09/15 11:02:02;;;;;;;0.00;0.00;;;19.60;66.60;;;;;;4996120;28;20506;-67
2023/09/15 11:04:28;;;;;;;0.00;0.00;;;19.60;66.10;;;;;;5005725;28;20046;-67
2023/09/15 11:06:54;;;;;;;0.00;0.00;;;19.60;66.70;;;;;;4998163;28;20042;-66
2023/09/15 11:09:21;;;;;;;0.00;0.00;;;19.70;65.50;;;;;;5007842;28;20071;-67
2023/09/15 11:11:48;;;;;;;0.00;0.00;;;19.80;65.50;;;;;;4997527;28;20659;-66
2023/09/15 11:14:19;;;;;;;0.50;0.45;;;19.80;66.30;;;;;;5007186;28;20069;-67
2023/09/15 11:16:46;;;;;;;0.00;0.00;;;19.80;66.70;;;;;;5000573;28;20104;-67
2023/09/15 11:19:13;;;;;;;0.00;0.00;;;19.90;66.00;;;;;;5004319;28;20046;-67
2023/09/15 11:21:41;;;;;;;0.00;0.00;;;19.90;66.40;;;;;;5000268;28;20061;-67
2023/09/15 11:24:10;;;;;;;0.00;0.00;;;19.90;64.10;;;;;;5005129;28;20081;-67
2023/09/15 11:26:44;;;;;;;0.00;0.00;;;19.90;65.00;;;;;;5003030;28;20091;-68
2023/09/15 11:29:09;;;;;;;0.00;0.00;;;19.90;63.40;;;;;;5003165;28;20069;-67
2023/09/15 11:31:37;;;;;;;0.10;0.10;;;20.00;64.60;;;;;;5000910;28;20889;-68
2023/09/15 11:34:05;;;;;;;0.00;0.00;;;20.00;65.00;;;;;;5002733;28;20058;-67
2023/09/15 11:36:35;;;;;;;0.00;0.00;;;20.00;65.20;;;;;;5001123;28;20057;-67
2023/09/15 11:39:10;;;;;;;0.00;0.00;;;20.10;65.80;;;;;;5003117;28;20089;-68
2023/09/15 11:41:37;;;;;;;0.08;0.08;;;20.10;64.00;;;;;;5007245;28;20424;-67
2023/09/15 11:44:06;;;;;;;0.00;0.00;;;20.10;65.20;;;;;;5007224;28;20088;-67
2023/09/15 11:46:34;;;;;;;0.00;0.00;;;20.20;66.00;;;;;;4996727;28;20041;-67
2023/09/15 11:49:01;;;;;;;0.00;0.00;;;20.30;65.70;;;;;;4981485;28;20061;-67
2023/09/15 11:51:27;;;;;;;0.00;0.00;;;20.40;65.40;;;;;;5004392;28;20045;-66
2023/09/15 11:53:56;;;;;;;0.13;0.13;;;20.40;65.60;;;;;;4981128;28;20573;-67
2023/09/15 11:56:22;;;;;;;0.00;0.00;;;20.40;63.00;;;;;;5006965;28;20511;-66
2023/09/15 11:58:49;;;;;;;0.30;0.30;;;20.50;63.90;;;;;;5007884;28;20129;-66
2023/09/15 12:01:17;;;;;;;0.00;0.00;;;20.50;62.50;;;;;;4996624;28;20457;-66
2023/09/15 12:03:43;;;;;;;0.00;0.00;;;20.50;62.70;;;;;;5000636;28;20140;-66
2023/09/15 12:06:08;;;;;;;0.00;0.00;;;20.60;63.30;;;;;;5007852;28;20153;-66
2023/09/15 12:08:34;;;;;;;0.00;0.00;;;20.70;62.40;;;;;;4994079;28;20057;-67
2023/09/15 12:10:59;;;;;;;0.00;0.00;;;20.80;64.00;;;;;;5006417;28;20570;-67
2023/09/15 12:13:25;;;;;;;0.00;0.00;;;20.90;63.20;;;;;;5008755;28;20073;-67
2023/09/15 12:15:51;;;;;;;0.00;0.00;;;21.00;64.20;;;;;;4995641;28;20046;-67
2023/09/15 12:18:16;;;;;;;0.00;0.00;;;21.00;62.60;;;;;;4990176;28;20038;-66
2023/09/15 12:20:48;;;;;;;0.00;0.00;;;21.10;63.50;;;;;;5003815;28;20108;-66
2023/09/15 12:23:15;;;;;;;;;;;21.20;62.80;;;;;;5021688;28;20124;-66
2023/09/15 12:25:41;;;;;;;0.03;0.03;;;21.40;64.30;;;;;;5009582;28;19921;-66
2023/09/15 12:28:06;;;;;;;0.00;0.00;;;21.40;62.10;;;;;;5016533;28;20460;-66
2023/09/15 12:30:34;;;;;;;0.00;0.00;;;21.50;61.40;;;;;;5015439;28;20124;-66
2023/09/15 12:33:03;;;;;;;0.00;0.00;;;21.60;62.40;;;;;;5009238;28;20049;-66
2023/09/15 12:35:30;;;;;;;0.00;0.00;;;21.60;61.60;;;;;;5009469;28;20414;-66
2023/09/15 12:37:56;;;;;;;0.00;0.00;;;21.70;61.50;;;;;;5009137;28;20057;-66
2023/09/15 12:40:22;;;;;;;0.00;0.00;;;21.80;61.40;;;;;;5017298;28;20049;-66
2023/09/15 12:42:48;;;;;;;0.00;0.00;;;21.80;61.60;;;;;;5028224;28;20044;-66
2023/09/15 12:45:16;;;;;;;0.00;0.00;;;21.70;61.20;;;;;;5029072;28;20041;-66